Time;durP1;ratioP1;P1;durP2;ratioP2;P2;SDS_P1;SDS_P2;PMS_P1;PMS_P2;Temp;Humidity;BMP_temperature;BMP_pressure;BME280_temperature;BME280_humidity;BME280_pressure;Samples;Min_cycle;Max_cycle;Signal;HPM_P1;HPM_P2
2022/06/21 00:01:51;;;;;;;3.50;2.40;;;;;;;26.13;45.30;100161.15;104840;1306;74418;-82
2022/06/21 00:04:17;;;;;;;5.20;2.80;;;;;;;26.12;45.33;100160.46;104849;1305;60437;-81
2022/06/21 00:06:43;;;;;;;3.80;2.40;;;;;;;26.12;45.32;100161.39;104872;1305;60404;-81
2022/06/21 00:09:13;;;;;;;4.30;2.60;;;;;;;26.12;45.47;100161.92;104812;1305;60567;-81
2022/06/21 00:11:38;;;;;;;5.40;2.60;;;;;;;26.12;45.44;100159.09;104840;1306;74859;-81
2022/06/21 00:14:04;;;;;;;3.50;2.20;;;;;;;26.12;45.50;100161.25;104894;1306;60469;-81
2022/06/21 00:16:30;;;;;;;4.00;2.70;;;;;;;26.12;45.44;100160.36;104876;1306;60606;-81
2022/06/21 00:18:56;;;;;;;4.20;2.70;;;;;;;26.12;45.52;100160.17;104661;1306;60481;-81
2022/06/21 00:21:23;;;;;;;3.70;2.70;;;;;;;26.11;45.48;100153.70;104834;1306;60491;-81
2022/06/21 00:23:50;;;;;;;4.00;2.90;;;;;;;26.11;45.41;100152.69;104847;1306;60493;-81
2022/06/21 00:26:17;;;;;;;4.40;2.60;;;;;;;26.11;45.67;100151.58;104750;1305;60462;-81
2022/06/21 00:28:43;;;;;;;3.90;2.70;;;;;;;26.11;45.70;100153.23;104877;1306;60585;-82
2022/06/21 00:31:21;;;;;;;4.30;2.70;;;;;;;26.11;45.64;100152.34;104833;1305;60465;-81
2022/06/21 00:33:46;;;;;;;4.40;2.80;;;;;;;26.11;45.56;100148.54;104832;1305;61678;-81
2022/06/21 00:36:17;;;;;;;3.90;2.60;;;;;;;26.10;45.72;100147.38;104725;1306;60585;-81
2022/06/21 00:38:43;;;;;;;4.00;2.60;;;;;;;26.11;45.68;100146.40;104749;1306;73198;-81
2022/06/21 00:41:09;;;;;;;4.50;2.80;;;;;;;26.10;45.63;100144.61;104855;1306;60494;-82
2022/06/21 00:43:38;;;;;;;5.40;2.50;;;;;;;26.10;45.60;100145.21;104851;1305;60347;-82
2022/06/21 00:46:10;;;;;;;;;;;;;;;26.09;45.64;100143.05;104701;1306;60453;-81
2022/06/21 00:48:40;;;;;;;4.10;2.60;;;;;;;26.08;45.59;100142.69;104708;1306;72830;-81
2022/06/21 00:51:36;;;;;;;3.70;2.40;;;;;;;26.08;45.83;100140.84;104837;1305;74147;-82
2022/06/21 00:54:21;;;;;;;3.90;2.60;;;;;;;26.08;45.73;100137.63;104492;1308;60465;-82
2022/06/21 00:56:58;;;;;;;4.50;2.50;;;;;;;26.08;45.87;100130.21;104446;1309;60383;-81
2022/06/21 00:59:25;;;;;;;3.40;2.50;;;;;;;26.08;45.80;100122.83;104389;1312;72799;-82
2022/06/21 01:01:54;;;;;;;4.80;2.70;;;;;;;26.08;46.06;100121.56;104431;1309;75254;-82
2022/06/21 01:04:36;;;;;;;4.00;2.60;;;;;;;26.08;45.90;100120.29;104463;1310;61499;-82
2022/06/21 01:07:03;;;;;;;4.50;2.80;;;;;;;26.08;46.12;100112.38;104495;1309;60558;-82
2022/06/21 01:09:33;;;;;;;3.40;2.40;;;;;;;26.08;45.80;100102.09;104411;1310;73863;-82
2022/06/21 01:12:11;;;;;;;4.10;2.60;;;;;;;26.08;46.10;100101.52;104458;1309;74103;-82
2022/06/21 01:14:53;;;;;;;4.10;2.50;;;;;;;26.08;45.99;100102.44;104472;1309;60370;-81
2022/06/21 01:17:19;;;;;;;4.20;2.80;;;;;;;26.08;45.90;100104.66;104434;1310;60530;-82
2022/06/21 01:19:48;;;;;;;4.10;2.90;;;;;;;26.08;45.93;100100.87;104439;1309;60506;-81
2022/06/21 01:22:45;;;;;;;4.10;2.80;;;;;;;26.08;45.96;100100.48;104375;1312;74044;-81
2022/06/21 01:25:50;;;;;;;4.50;2.70;;;;;;;26.08;45.95;100101.59;104315;1309;60350;-81
2022/06/21 01:28:16;;;;;;;5.00;2.90;;;;;;;26.08;45.99;100092.59;104151;1316;60497;-82
2022/06/21 01:30:43;;;;;;;3.60;2.80;;;;;;;26.08;46.06;100092.42;104163;1312;60209;-81
2022/06/21 01:33:14;;;;;;;4.90;2.90;;;;;;;26.08;46.33;100093.31;104225;1311;76075;-81
2022/06/21 01:35:42;;;;;;;3.50;2.80;;;;;;;26.07;46.24;100086.67;104385;1311;60673;-81
2022/06/21 01:38:10;;;;;;;5.00;3.10;;;;;;;26.07;46.18;100088.64;104323;1312;60447;-81
2022/06/21 01:40:39;;;;;;;4.60;3.00;;;;;;;26.08;46.25;100089.52;104343;1312;74400;-81
2022/06/21 01:43:09;;;;;;;4.50;2.90;;;;;;;26.08;46.05;100092.22;104239;1311;74127;-81
2022/06/21 01:45:41;;;;;;;4.10;2.80;;;;;;;26.07;46.15;100084.17;104310;1312;60592;-82
2022/06/21 01:48:10;;;;;;;5.40;3.00;;;;;;;26.07;46.03;100082.55;104324;1311;61455;-82
2022/06/21 01:50:35;;;;;;;4.40;2.80;;;;;;;26.07;46.19;100080.95;104339;1311;73867;-82
2022/06/21 01:53:01;;;;;;;3.50;2.70;;;;;;;26.07;46.09;100075.13;104355;1311;60475;-82
2022/06/21 01:55:34;;;;;;;4.30;3.00;;;;;;;26.07;46.13;100071.39;104360;1311;60477;-82
2022/06/21 01:58:00;;;;;;;4.80;2.70;;;;;;;26.07;46.40;100064.36;104394;1311;60485;-84
2022/06/21 02:00:27;;;;;;;4.90;3.10;;;;;;;26.07;46.14;100069.59;104623;1306;60440;-81
2022/06/21 02:02:59;;;;;;;4.90;3.00;;;;;;;26.07;46.18;100068.88;104879;1306;60350;-81
2022/06/21 02:05:28;;;;;;;4.40;3.10;;;;;;;26.06;46.21;100066.41;104844;1305;60675;-81
2022/06/21 02:07:56;;;;;;;4.30;2.80;;;;;;;26.06;46.37;100068.23;104848;1306;61964;-81
2022/06/21 02:10:26;;;;;;;4.10;2.80;;;;;;;26.06;46.32;100069.13;104849;1305;72892;-81
2022/06/21 02:13:05;;;;;;;4.10;2.60;;;;;;;26.06;46.58;100066.98;104857;1305;73752;-81
2022/06/21 02:15:45;;;;;;;3.70;2.90;;;;;;;26.06;46.33;100064.48;104815;1306;61651;-82
2022/06/21 02:18:12;;;;;;;3.60;2.70;;;;;;;26.06;46.42;100064.11;104830;1306;62464;-83
2022/06/21 02:21:03;;;;;;;5.10;3.10;;;;;;;26.06;46.31;100066.81;104828;1305;73947;-82
2022/06/21 02:23:29;;;;;;;3.70;2.70;;;;;;;26.06;46.31;100058.36;104475;1309;74214;-82
2022/06/21 02:25:55;;;;;;;3.80;2.90;;;;;;;26.06;46.58;100059.95;104471;1309;60502;-82
2022/06/21 02:28:21;;;;;;;3.30;2.50;;;;;;;26.05;46.40;100058.56;104387;1309;60974;-81
2022/06/21 02:30:48;;;;;;;4.40;2.80;;;;;;;26.06;46.58;100055.46;104349;1309;60437;-82
2022/06/21 02:33:18;;;;;;;4.60;2.60;;;;;;;26.06;46.52;100052.92;104416;1309;60578;-82
2022/06/21 02:35:49;;;;;;;4.00;2.90;;;;;;;26.07;46.35;100049.83;104417;1309;61664;-82
2022/06/21 02:38:18;;;;;;;4.20;2.70;;;;;;;26.06;46.66;100046.81;104445;1309;61427;-82
2022/06/21 02:41:06;;;;;;;4.00;2.60;;;;;;;26.06;46.43;100047.89;104486;1309;73070;-81
2022/06/21 02:43:53;;;;;;;4.40;2.80;;;;;;;26.06;46.65;100045.02;104427;1309;74209;-82
2022/06/21 02:46:24;;;;;;;5.10;2.90;;;;;;;26.06;46.56;100034.22;104471;1308;60488;-82
2022/06/21 02:48:54;;;;;;;5.00;3.00;;;;;;;26.05;46.62;100027.02;104390;1309;60965;-81
2022/06/21 02:51:23;;;;;;;5.30;2.90;;;;;;;26.05;46.57;100023.39;104483;1309;72848;-82
2022/06/21 02:53:53;;;;;;;4.90;2.70;;;;;;;26.05;46.48;100019.45;104375;1309;74979;-82
2022/06/21 02:56:28;;;;;;;4.70;2.70;;;;;;;26.06;46.59;100021.80;104475;1309;60528;-82
2022/06/21 02:58:55;;;;;;;6.00;2.90;;;;;;;26.05;46.69;100020.32;104431;1309;60537;-82
2022/06/21 03:01:26;;;;;;;4.00;2.70;;;;;;;26.05;46.62;100020.90;104665;1305;73328;-81
2022/06/21 03:03:52;;;;;;;4.10;2.80;;;;;;;26.06;46.80;100020.70;104685;1306;72949;-82
2022/06/21 03:06:18;;;;;;;3.90;2.80;;;;;;;26.05;46.71;100014.37;104838;1306;61291;-82
2022/06/21 03:09:06;;;;;;;4.10;2.80;;;;;;;26.06;46.73;100008.77;104913;1304;60491;-81
2022/06/21 03:11:34;;;;;;;4.10;2.80;;;;;;;26.06;46.86;100010.02;104748;1305;72874;-81
2022/06/21 03:14:05;;;;;;;3.90;2.80;;;;;;;26.06;46.69;100008.96;104796;1306;73905;-81
2022/06/21 03:16:30;;;;;;;5.10;3.10;;;;;;;26.05;46.61;100009.75;104859;1306;61230;-81
2022/06/21 03:18:58;;;;;;;3.60;2.70;;;;;;;26.06;46.74;100008.91;104686;1306;60599;-81
2022/06/21 03:21:35;;;;;;;3.90;2.70;;;;;;;26.06;46.61;100001.03;104849;1306;73884;-82
2022/06/21 03:24:03;;;;;;;3.70;2.60;;;;;;;26.05;46.87;99996.36;104842;1305;74022;-81
2022/06/21 03:26:29;;;;;;;5.10;2.90;;;;;;;26.05;46.81;99996.18;104856;1305;61313;-82
2022/06/21 03:28:54;;;;;;;3.70;2.50;;;;;;;26.06;46.89;99997.21;104858;1305;60648;-82
2022/06/21 03:31:21;;;;;;;3.90;3.00;;;;;;;26.06;46.68;100004.24;104875;1306;60438;-82
2022/06/21 03:33:52;;;;;;;4.20;2.60;;;;;;;26.06;46.67;99993.42;104829;1306;61035;-82
2022/06/21 03:36:21;;;;;;;5.00;2.70;;;;;;;26.06;46.76;99990.32;104853;1306;61552;-82
2022/06/21 03:38:49;;;;;;;4.60;2.80;;;;;;;26.07;46.88;99990.66;104840;1306;61641;-82
2022/06/21 03:44:07;;;;;;;4.10;2.90;;;;;;;26.06;46.81;99985.45;104836;1306;75039;-82
2022/06/21 03:46:40;;;;;;;3.60;2.70;;;;;;;26.07;46.86;99985.08;104845;1306;61376;-82
2022/06/21 03:49:12;;;;;;;7.60;2.80;;;;;;;26.06;46.97;99983.52;104841;1305;61456;-82
2022/06/21 03:51:39;;;;;;;5.10;2.90;;;;;;;26.06;46.89;99979.18;104824;1306;73536;-81
2022/06/21 03:54:10;;;;;;;4.30;2.80;;;;;;;26.06;46.93;99976.31;104800;1306;74088;-81
2022/06/21 03:57:21;;;;;;;5.30;2.90;;;;;;;26.06;46.92;99973.72;104829;1306;60361;-81
2022/06/21 03:59:51;;;;;;;4.10;2.60;;;;;;;26.05;46.94;99974.59;104313;1312;61304;-82
2022/06/21 04:02:26;;;;;;;3.90;2.70;;;;;;;26.05;47.07;99975.84;104263;1313;73803;-82
2022/06/21 04:04:57;;;;;;;4.40;3.00;;;;;;;26.05;46.81;99972.83;104411;1312;74973;-82
2022/06/21 04:07:34;;;;;;;5.00;3.40;;;;;;;26.04;46.94;99973.77;104399;1312;60430;-81
2022/06/21 04:10:01;;;;;;;6.10;3.40;;;;;;;26.04;46.94;99971.99;104298;1313;60568;-81
2022/06/21 04:12:50;;;;;;;6.50;3.60;;;;;;;26.04;46.71;99976.16;104384;1312;73979;-81
2022/06/21 04:15:26;;;;;;;7.50;3.60;;;;;;;26.03;46.77;99980.04;104404;1312;74982;-81
2022/06/21 04:18:02;;;;;;;6.20;3.50;;;;;;;26.02;46.78;99975.02;104386;1311;60392;-81
2022/06/21 04:20:49;;;;;;;8.70;3.80;;;;;;;26.02;46.34;99977.21;104321;1313;61442;-81
2022/06/21 04:23:23;;;;;;;8.00;3.80;;;;;;;26.02;46.37;99974.73;104300;1313;73046;-81
2022/06/21 04:25:57;;;;;;;7.90;3.80;;;;;;;26.02;46.32;99973.12;104300;1313;74882;-81
2022/06/21 04:28:34;;;;;;;5.80;3.40;;;;;;;26.02;46.20;99977.92;104336;1312;61148;-81
2022/06/21 04:31:13;;;;;;;9.80;3.70;;;;;;;26.02;46.06;99975.40;104344;1312;61898;-81
2022/06/21 04:34:08;;;;;;;6.30;3.60;;;;;;;26.03;46.03;99978.77;104345;1311;72777;-82
2022/06/21 04:36:53;;;;;;;4.90;2.90;;;;;;;26.03;46.11;99978.41;104470;1305;72884;-82
2022/06/21 04:39:40;;;;;;;6.60;3.20;;;;;;;26.03;45.83;99979.84;104830;1306;61564;-82
2022/06/21 04:42:10;;;;;;;5.70;3.10;;;;;;;26.04;45.99;99978.51;104856;1306;60402;-82
2022/06/21 04:45:17;;;;;;;7.40;3.30;;;;;;;26.04;45.93;99975.03;104819;1304;72579;-82
2022/06/21 04:47:51;;;;;;;6.80;3.40;;;;;;;26.04;45.90;99972.66;104864;1306;75086;-82
2022/06/21 04:50:39;;;;;;;6.30;3.20;;;;;;;26.05;45.78;99976.55;104881;1305;62461;-81
2022/06/21 04:53:20;;;;;;;6.10;3.00;;;;;;;26.05;45.77;99977.27;104676;1306;60366;-81
2022/06/21 04:55:58;;;;;;;4.40;3.20;;;;;;;26.05;45.46;99975.86;104826;1306;73770;-81
2022/06/21 04:58:24;;;;;;;7.70;3.30;;;;;;;26.04;45.64;99969.98;104808;1306;73884;-82
2022/06/21 05:00:49;;;;;;;8.90;3.60;;;;;;;26.04;45.49;99968.97;104879;1305;60427;-82
2022/06/21 05:03:27;;;;;;;6.10;3.30;;;;;;;26.04;45.51;99970.59;104847;1305;60488;-82
2022/06/21 05:05:53;;;;;;;9.90;3.50;;;;;;;26.03;45.65;99963.23;104673;1305;73555;-82
2022/06/21 05:08:22;;;;;;;7.50;3.60;;;;;;;26.03;45.41;99956.41;104658;1306;59358;-81
2022/06/21 05:10:50;;;;;;;8.60;3.70;;;;;;;26.03;45.35;99956.59;104603;1306;60534;-81
2022/06/21 05:13:26;;;;;;;10.80;3.70;;;;;;;26.03;45.28;99959.80;104573;1306;62053;-82
2022/06/21 05:15:52;;;;;;;7.30;3.60;;;;;;;26.03;45.49;99947.52;104677;1305;74035;-82
2022/06/21 05:18:21;;;;;;;5.30;3.60;;;;;;;26.04;45.46;99944.80;104739;1306;60490;-82
2022/06/21 05:20:50;;;;;;;9.10;3.70;;;;;;;26.04;45.29;99941.13;104762;1306;60576;-82
2022/06/21 05:23:15;;;;;;;6.70;3.40;;;;;;;26.06;45.11;99943.86;104736;1305;60761;-82
2022/06/21 05:25:42;;;;;;;8.70;3.80;;;;;;;26.06;45.20;99940.74;104652;1306;60471;-82
2022/06/21 05:28:44;;;;;;;7.70;3.60;;;;;;;26.07;45.17;99934.37;104781;1305;60478;-82
2022/06/21 05:31:14;;;;;;;7.00;3.80;;;;;;;26.08;45.19;99935.89;104307;1309;60375;-81
2022/06/21 05:33:44;;;;;;;7.50;3.70;;;;;;;26.09;45.06;99941.68;104300;1312;61355;-82
2022/06/21 05:36:15;;;;;;;7.30;3.90;;;;;;;26.10;44.93;99945.95;104304;1309;72917;-81
2022/06/21 05:38:50;;;;;;;7.90;4.10;;;;;;;26.11;44.84;99938.95;104285;1309;73103;-82
2022/06/21 05:41:30;;;;;;;7.10;3.60;;;;;;;26.13;45.10;99935.56;104258;1309;60873;-82
2022/06/21 05:44:13;;;;;;;7.20;4.10;;;;;;;26.14;44.81;99946.04;104247;1312;61374;-81
2022/06/21 05:46:49;;;;;;;8.70;3.90;;;;;;;26.15;44.84;99950.67;104281;1308;73983;-81
2022/06/21 05:49:29;;;;;;;9.30;4.60;;;;;;;26.15;44.79;99943.45;104254;1310;74684;-82
2022/06/21 05:51:55;;;;;;;7.40;4.10;;;;;;;26.16;44.59;99940.11;104304;1309;60523;-81
2022/06/21 05:54:44;;;;;;;10.40;4.60;;;;;;;26.16;44.68;99940.29;104273;1312;60367;-81
2022/06/21 05:57:12;;;;;;;7.60;4.40;;;;;;;26.18;44.60;99941.16;104314;1309;72914;-82
2022/06/21 05:59:39;;;;;;;11.60;5.80;;;;;;;26.18;44.76;99945.25;104225;1312;74076;-82
2022/06/21 06:02:30;;;;;;;9.40;4.60;;;;;;;26.19;44.48;99949.81;104285;1309;61837;-82
2022/06/21 06:05:35;;;;;;;7.30;4.40;;;;;;;26.21;44.67;99950.23;104307;1309;60552;-82
2022/06/21 06:08:25;;;;;;;7.10;4.30;;;;;;;26.20;44.51;99946.61;103745;1314;72914;-82
2022/06/21 06:10:51;;;;;;;6.70;4.50;;;;;;;26.22;44.34;99943.34;103871;1315;73949;-82
2022/06/21 06:13:25;;;;;;;7.30;4.60;;;;;;;26.24;44.50;99943.58;103949;1313;60527;-82
2022/06/21 06:15:56;;;;;;;7.50;4.20;;;;;;;26.25;44.47;99944.14;103993;1313;60489;-82
2022/06/21 06:18:29;;;;;;;8.70;4.70;;;;;;;26.27;44.62;99949.91;103992;1314;74047;-82
2022/06/21 06:21:04;;;;;;;7.00;4.80;;;;;;;26.29;44.41;99949.01;104823;1313;75050;-82
2022/06/21 06:23:39;;;;;;;9.80;4.80;;;;;;;26.30;44.39;99947.05;104493;1313;58767;-82
2022/06/21 06:26:12;;;;;;;9.20;4.60;;;;;;;26.33;44.21;99947.66;104185;1312;61562;-81
2022/06/21 06:28:48;;;;;;;11.80;4.40;;;;;;;26.35;44.18;99948.00;103393;1311;1088315;-82
2022/06/21 06:31:14;;;;;;;13.90;6.00;;;;;;;26.36;44.37;99948.80;104109;1313;73895;-82
2022/06/21 06:33:42;;;;;;;22.00;6.80;;;;;;;26.37;44.35;99942.95;104186;1311;60472;-82
2022/06/21 06:36:14;;;;;;;68.50;10.20;;;;;;;26.38;44.43;99944.81;104067;1312;62765;-82
2022/06/21 06:38:40;;;;;;;58.60;9.10;;;;;;;26.38;44.45;99949.14;104253;1306;73674;-83
2022/06/21 06:41:26;;;;;;;42.80;7.70;;;;;;;26.39;44.29;99945.59;104547;1306;60477;-82
2022/06/21 06:43:58;;;;;;;34.50;7.40;;;;;;;26.39;44.57;99946.41;104644;1305;61538;-82
2022/06/21 06:46:33;;;;;;;23.20;7.30;;;;;;;26.40;44.58;99947.47;104755;1306;60414;-82
2022/06/21 06:49:25;;;;;;;15.10;7.20;;;;;;;26.39;44.59;99948.06;104705;1306;73281;-82
2022/06/21 06:51:57;;;;;;;23.40;6.90;;;;;;;26.40;44.53;99946.77;104680;1305;72823;-81
2022/06/21 06:55:00;;;;;;;28.60;7.30;;;;;;;26.40;44.50;99952.36;104619;1306;60518;-82
2022/06/21 06:57:35;;;;;;;151.80;12.90;;;;;;;26.40;44.41;99957.90;104672;1306;61491;-81
2022/06/21 07:00:01;;;;;;;101.20;10.90;;;;;;;26.40;44.63;99956.41;104594;1306;72842;-81
2022/06/21 07:02:37;;;;;;;83.40;9.70;;;;;;;26.41;44.52;99951.79;104521;1306;60900;-81
2022/06/21 07:05:18;;;;;;;45.60;8.20;;;;;;;26.42;44.53;99949.89;104728;1306;60539;-81
2022/06/21 07:07:50;;;;;;;43.00;7.90;;;;;;;26.44;44.39;99950.47;104737;1306;60422;-82
2022/06/21 07:10:19;;;;;;;22.30;7.20;;;;;;;26.44;44.63;99948.64;104659;1306;73939;-82
2022/06/21 07:12:44;;;;;;;23.20;7.20;;;;;;;26.45;44.68;99946.75;104504;1306;73568;-82
2022/06/21 07:15:10;;;;;;;28.40;6.90;;;;;;;26.45;44.56;99939.89;104513;1306;60469;-82
2022/06/21 07:17:56;;;;;;;46.60;8.40;;;;;;;26.46;44.65;99934.77;104637;1306;60436;-82
2022/06/21 07:20:25;;;;;;;123.10;12.10;;;;;;;26.46;44.51;99935.99;104706;1304;73872;-82
2022/06/21 07:22:52;;;;;;;69.80;10.50;;;;;;;26.46;44.72;99937.43;104701;1305;75223;-83
2022/06/21 07:25:37;;;;;;;47.90;8.40;;;;;;;26.47;44.71;99943.30;104690;1306;61777;-82
2022/06/21 07:28:24;;;;;;;31.70;7.60;;;;;;;26.47;44.76;99949.23;104755;1306;62562;-82
2022/06/21 07:30:51;;;;;;;21.10;6.30;;;;;;;26.47;44.53;99947.83;104699;1306;72875;-82
2022/06/21 07:33:30;;;;;;;25.60;6.90;;;;;;;26.47;44.53;99947.47;104657;1306;73854;-82
2022/06/21 07:36:04;;;;;;;;;;;;;;;26.47;44.83;99946.17;104670;1306;61154;-82
2022/06/21 07:38:42;;;;;;;20.60;7.00;;;;;;;26.46;44.65;99946.61;104704;1306;61532;-82
2022/06/21 07:41:19;;;;;;;19.00;7.00;;;;;;;26.48;44.79;99944.49;104830;1306;73171;-82
2022/06/21 07:43:49;;;;;;;35.70;7.20;;;;;;;26.48;44.92;99939.20;104739;1306;73822;-82
2022/06/21 07:46:21;;;;;;;34.20;7.10;;;;;;;26.48;44.94;99937.74;104584;1306;60468;-82
2022/06/21 07:48:53;;;;;;;40.30;7.90;;;;;;;26.49;44.79;99936.08;104751;1306;60322;-82
2022/06/21 07:51:22;;;;;;;355.50;24.30;;;;;;;26.50;44.86;99937.23;104715;1306;73865;-82
2022/06/21 07:53:58;;;;;;;161.30;14.10;;;;;;;26.50;45.07;99935.37;104591;1306;75340;-82
2022/06/21 07:56:39;;;;;;;271.80;19.00;;;;;;;26.50;45.04;99935.50;104649;1306;61445;-82
2022/06/21 07:59:25;;;;;;;114.80;12.50;;;;;;;26.52;45.04;99929.21;104701;1306;61515;-82
2022/06/21 08:07:47;;;;;;;62.60;9.40;;;;;;;26.57;44.79;99932.94;104401;1306;60334;-82
2022/06/21 08:10:33;;;;;;;85.00;10.40;;;;;;;26.59;44.80;99930.94;104791;1305;60485;-82
2022/06/21 08:12:59;;;;;;;543.20;30.80;;;;;;;26.61;44.67;99919.75;104571;1306;73923;-82
2022/06/21 08:15:32;;;;;;;297.60;19.40;;;;;;;26.62;44.64;99919.98;104598;1306;60526;-82
2022/06/21 08:18:04;;;;;;;166.30;12.00;;;;;;;26.67;44.70;99919.48;104460;1306;61240;-82
2022/06/21 08:20:57;;;;;;;71.40;9.70;;;;;;;26.70;44.39;99916.95;104731;1305;60979;-82
2022/06/21 08:23:32;;;;;;;64.00;8.90;;;;;;;26.72;44.32;99908.08;104797;1306;72727;-83
2022/06/21 08:26:02;;;;;;;47.90;8.50;;;;;;;26.75;44.32;99914.78;104686;1306;75232;-82
2022/06/21 08:28:34;;;;;;;28.40;7.20;;;;;;;26.78;44.06;99917.45;104694;1306;60490;-83
2022/06/21 08:31:08;;;;;;;25.30;7.30;;;;;;;26.81;44.03;99921.29;104617;1306;60463;-82
2022/06/21 08:33:44;;;;;;;35.50;7.70;;;;;;;26.84;43.96;99923.28;104897;1305;73862;-83
2022/06/21 08:36:25;;;;;;;21.20;7.20;;;;;;;26.84;43.80;99929.23;104685;1306;72915;-83
2022/06/21 08:38:53;;;;;;;29.70;7.80;;;;;;;26.85;43.90;99928.90;104700;1305;60468;-82
2022/06/21 08:44:29;;;;;;;14.60;6.50;;;;;;;26.85;43.57;99931.91;104693;1306;73775;-82
2022/06/21 08:47:44;;;;;;;17.40;6.80;;;;;;;26.85;43.59;99926.73;104743;1304;74169;-82
2022/06/21 08:50:24;;;;;;;15.80;6.80;;;;;;;26.85;43.30;99924.88;103859;1316;60409;-82
2022/06/21 08:53:23;;;;;;;12.80;6.00;;;;;;;26.88;43.48;99925.91;103940;1316;60422;-82
2022/06/21 08:55:57;;;;;;;13.00;6.10;;;;;;;26.89;43.18;99921.56;103769;1317;74034;-82
2022/06/21 08:58:30;;;;;;;13.40;5.90;;;;;;;26.93;43.08;99918.79;103909;1317;74031;-82
2022/06/21 09:00:59;;;;;;;17.30;6.50;;;;;;;26.95;42.96;99920.40;103973;1316;61021;-82
2022/06/21 09:03:33;;;;;;;;;;;;;;;26.96;42.69;99920.51;103943;1316;61355;-82
2022/06/21 09:06:04;;;;;;;10.60;6.00;;;;;;;26.95;42.90;99915.48;103742;1316;72847;-82
2022/06/21 09:09:00;;;;;;;12.40;6.00;;;;;;;26.97;42.80;99913.11;103764;1316;73847;-82
2022/06/21 09:11:50;;;;;;;10.80;5.60;;;;;;;27.00;42.52;99914.61;103870;1318;60499;-82
2022/06/21 09:14:18;;;;;;;9.90;5.70;;;;;;;27.03;42.29;99913.39;103533;1316;60540;-82
2022/06/21 09:17:04;;;;;;;12.20;6.50;;;;;;;27.04;42.25;99913.09;103553;1317;74038;-82
2022/06/21 09:20:05;;;;;;;17.20;7.10;;;;;;;27.04;42.29;99909.70;103758;1316;75311;-82
2022/06/21 09:22:37;;;;;;;13.40;6.20;;;;;;;27.05;42.01;99910.58;103455;1318;60532;-82
2022/06/21 09:25:29;;;;;;;9.30;5.30;;;;;;;27.08;42.05;99907.90;103707;1316;61498;-82
2022/06/21 09:28:03;;;;;;;23.70;6.60;;;;;;;27.13;41.68;99905.46;104423;1306;73579;-82
2022/06/21 09:30:48;;;;;;;47.10;8.00;;;;;;;27.12;41.65;99906.58;104788;1306;74559;-82
2022/06/21 09:33:30;;;;;;;14.90;5.10;;;;;;;27.10;41.70;99906.45;104643;1306;60535;-82
2022/06/21 09:36:22;;;;;;;14.90;5.40;;;;;;;27.15;41.86;99904.48;104765;1306;61316;-81
2022/06/21 09:39:03;;;;;;;13.60;5.60;;;;;;;27.14;41.86;99893.36;104743;1306;72679;-84
2022/06/21 09:41:34;;;;;;;17.30;5.30;;;;;;;27.15;41.77;99892.04;104804;1305;74261;-84
2022/06/21 09:44:20;;;;;;;12.40;5.10;;;;;;;27.18;41.63;99885.56;104833;1305;60605;-82
2022/06/21 09:46:51;;;;;;;17.30;5.90;;;;;;;27.18;41.33;99876.33;104817;1306;61198;-82
2022/06/21 09:49:34;;;;;;;14.40;5.20;;;;;;;27.20;41.11;99866.56;104671;1305;73565;-81
2022/06/21 09:52:34;;;;;;;14.40;5.60;;;;;;;27.22;41.09;99861.11;104644;1306;74314;-83
2022/06/21 09:55:24;;;;;;;10.30;5.30;;;;;;;27.26;41.00;99859.55;104704;1306;61191;-81
2022/06/21 09:58:11;;;;;;;9.50;5.30;;;;;;;27.29;40.84;99856.52;104751;1306;61623;-81
2022/06/21 10:00:44;;;;;;;9.10;4.70;;;;;;;27.30;40.66;99867.30;104710;1306;72966;-81
2022/06/21 10:03:48;;;;;;;13.80;5.00;;;;;;;27.30;40.81;99867.23;104777;1305;75324;-83
2022/06/21 10:06:30;;;;;;;11.20;5.30;;;;;;;27.33;40.50;99860.63;104615;1304;61636;-83
2022/06/21 10:09:06;;;;;;;8.10;5.10;;;;;;;27.36;40.71;99856.48;104680;1305;60485;-84
2022/06/21 10:11:40;;;;;;;10.90;5.40;;;;;;;27.40;40.67;99850.19;105022;1305;72640;-83
2022/06/21 10:14:31;;;;;;;11.60;5.50;;;;;;;27.47;40.69;99851.99;104724;1306;74218;-83
2022/06/21 10:17:34;;;;;;;7.80;4.90;;;;;;;27.45;40.28;99854.96;104713;1306;60526;-83
2022/06/21 10:20:03;;;;;;;11.70;5.00;;;;;;;27.47;40.57;99854.37;104758;1306;60540;-84
2022/06/21 10:23:05;;;;;;;6.40;4.60;;;;;;;27.48;40.08;99851.48;104700;1306;74113;-83
2022/06/21 10:26:06;;;;;;;9.90;4.70;;;;;;;27.49;40.13;99844.57;104724;1305;73846;-83
2022/06/21 10:28:51;;;;;;;9.30;4.40;;;;;;;27.48;40.04;99848.23;104113;1311;60671;-83
2022/06/21 10:31:46;;;;;;;9.70;4.90;;;;;;;27.46;40.04;99841.42;104132;1311;61491;-83
2022/06/21 10:34:23;;;;;;;10.50;5.00;;;;;;;27.43;40.28;99834.35;104131;1312;72748;-83
2022/06/21 10:37:00;;;;;;;8.70;4.80;;;;;;;27.40;40.30;99834.10;104112;1313;73803;-83
2022/06/21 10:39:49;;;;;;;7.90;4.60;;;;;;;27.39;40.31;99833.48;104261;1312;61497;-83
2022/06/21 10:45:06;;;;;;;13.50;5.30;;;;;;;27.39;40.44;99823.21;104269;1312;72682;-84
2022/06/21 10:47:37;;;;;;;10.30;5.20;;;;;;;27.35;40.29;99816.14;104223;1310;75283;-84
2022/06/21 10:50:10;;;;;;;13.40;5.40;;;;;;;27.30;40.50;99814.45;104338;1313;60603;-84
2022/06/21 10:53:28;;;;;;;12.10;5.10;;;;;;;27.26;40.56;99806.23;104396;1312;60470;-84
2022/06/21 10:59:19;;;;;;;22.40;5.80;;;;;;;27.16;40.96;99804.27;104520;1312;73953;-82
2022/06/21 11:02:09;;;;;;;30.80;5.60;;;;;;;27.12;41.14;99799.30;104563;1312;60583;-82
2022/06/21 11:04:47;;;;;;;103.40;10.80;;;;;;;27.10;41.04;99795.77;104467;1311;60755;-83
2022/06/21 11:07:38;;;;;;;81.70;10.50;;;;;;;27.09;41.15;99795.55;104850;1306;72801;-82
2022/06/21 11:10:28;;;;;;;71.90;10.50;;;;;;;27.06;41.12;99792.89;104963;1306;73839;-83
2022/06/21 11:13:04;;;;;;;21.80;5.40;;;;;;;27.05;41.28;99783.74;105015;1305;60474;-82
2022/06/21 11:15:39;;;;;;;57.40;7.60;;;;;;;27.04;41.17;99790.19;104902;1306;60795;-82
2022/06/21 11:18:10;;;;;;;12.50;4.70;;;;;;;27.02;41.22;99792.13;104732;1304;72732;-82
2022/06/21 11:21:01;;;;;;;14.80;4.70;;;;;;;27.00;41.30;99795.61;104738;1306;73868;-82
2022/06/21 11:23:53;;;;;;;9.50;5.10;;;;;;;26.98;41.46;99797.38;104642;1306;60360;-82
2022/06/21 11:26:47;;;;;;;15.10;5.30;;;;;;;26.96;41.49;99795.55;104176;1310;60661;-82
2022/06/21 11:29:33;;;;;;;7.40;4.80;;;;;;;26.93;41.26;99792.37;104206;1310;72802;-82
2022/06/21 11:32:40;;;;;;;64.80;10.10;;;;;;;26.93;41.11;99790.32;104266;1310;74806;-82
2022/06/21 11:35:47;;;;;;;15.20;5.50;;;;;;;26.91;41.36;99789.17;104076;1310;60959;-82
2022/06/21 11:38:42;;;;;;;13.60;5.10;;;;;;;26.90;41.11;99788.05;103893;1316;61698;-82
2022/06/21 11:44:34;;;;;;;97.50;11.20;;;;;;;26.89;41.38;99780.41;103772;1317;73872;-82
2022/06/21 11:47:45;;;;;;;19.60;5.20;;;;;;;26.89;41.28;99787.41;103851;1318;61855;-82
2022/06/21 11:50:23;;;;;;;13.10;4.80;;;;;;;26.88;41.42;99779.59;103805;1316;60466;-81
2022/06/21 11:53:10;;;;;;;12.10;5.30;;;;;;;26.88;41.48;99774.34;104101;1316;72902;-81
2022/06/21 11:55:40;;;;;;;20.10;5.00;;;;;;;26.87;41.24;99772.33;104130;1316;75471;-81
2022/06/21 11:58:14;;;;;;;11.70;5.00;;;;;;;26.87;41.04;99765.52;104197;1316;60347;-83
2022/06/21 12:01:08;;;;;;;10.80;4.70;;;;;;;26.87;41.41;99772.40;104212;1316;61475;-81
2022/06/21 12:03:39;;;;;;;19.00;4.70;;;;;;;26.86;41.41;99769.75;104173;1309;73024;-82
2022/06/21 12:06:15;;;;;;;12.80;5.00;;;;;;;26.86;41.15;99767.08;104514;1308;74084;-81
2022/06/21 12:08:48;;;;;;;15.30;4.70;;;;;;;26.85;41.27;99762.65;104448;1309;61396;-81
2022/06/21 12:11:20;;;;;;;16.70;5.00;;;;;;;26.85;41.17;99758.89;104407;1312;62435;-81
2022/06/21 12:14:00;;;;;;;12.10;5.00;;;;;;;26.85;41.21;99758.69;104435;1309;73824;-81
2022/06/21 12:16:32;;;;;;;20.10;5.50;;;;;;;26.84;41.25;99750.67;104784;1305;74332;-81
2022/06/21 12:19:22;;;;;;;17.30;5.20;;;;;;;26.84;41.33;99754.15;104901;1304;61171;-81
2022/06/21 12:21:52;;;;;;;17.60;4.90;;;;;;;26.83;41.34;99750.18;104801;1306;60515;-81
2022/06/21 12:24:20;;;;;;;25.50;5.40;;;;;;;26.84;41.35;99755.83;104726;1306;74077;-81